createdAt,value
2018-01-05T00:00:11.588Z,4.20
2018-01-05T00:02:39.885Z,4.20
2018-01-05T00:05:08.193Z,4.20
2018-01-05T00:07:36.494Z,4.20
2018-01-05T00:10:04.828Z,4.20
2018-01-05T00:12:33.897Z,4.20
2018-01-05T00:15:02.206Z,4.20
2018-01-05T00:17:30.504Z,4.10
2018-01-05T00:19:59.611Z,4.10
2018-01-05T00:22:27.922Z,4.10
2018-01-05T00:24:56.984Z,4.10
2018-01-05T00:27:25.287Z,4.10
2018-01-05T00:29:53.591Z,4.10
2018-01-05T00:32:21.899Z,4.20
2018-01-05T00:34:50.963Z,4.20
2018-01-05T00:37:19.353Z,4.10
2018-01-05T00:39:47.629Z,4.10
2018-01-05T00:42:15.915Z,4.10
2018-01-05T00:44:44.207Z,4.10
2018-01-05T00:47:12.519Z,4.00
2018-01-05T00:49:40.924Z,4.10
2018-01-05T00:52:09.215Z,4.00
2018-01-05T00:54:37.505Z,4.00
2018-01-05T00:57:05.810Z,4.00
2018-01-05T00:59:34.094Z,4.00
2018-01-05T01:02:02.412Z,4.00
2018-01-05T01:04:30.748Z,3.90
2018-01-05T01:06:59.059Z,3.90
2018-01-05T01:09:28.127Z,3.90
2018-01-05T01:11:56.458Z,3.90
2018-01-05T01:14:25.543Z,3.80
2018-01-05T01:16:53.851Z,3.80
2018-01-05T01:19:22.134Z,3.80
2018-01-05T01:21:50.430Z,3.80
2018-01-05T01:24:18.756Z,3.80
2018-01-05T01:26:47.808Z,3.70
2018-01-05T01:29:16.096Z,3.70
2018-01-05T01:31:44.379Z,3.70
2018-01-05T01:34:12.672Z,3.70
2018-01-05T01:36:40.994Z,3.70
2018-01-05T01:39:09.287Z,3.70
2018-01-05T01:41:37.569Z,3.70
2018-01-05T01:44:05.869Z,3.70
2018-01-05T01:46:34.164Z,3.70
2018-01-05T01:49:02.491Z,3.80
2018-01-05T01:51:30.788Z,3.80
2018-01-05T01:53:59.094Z,3.70
2018-01-05T01:56:27.376Z,3.70
2018-01-05T01:58:55.679Z,3.70
2018-01-05T02:01:23.987Z,3.70
2018-01-05T02:03:52.290Z,3.70
2018-01-05T02:06:20.579Z,3.70
2018-01-05T02:08:48.870Z,3.70
2018-01-05T02:11:17.150Z,3.70
2018-01-05T02:13:45.455Z,3.70
2018-01-05T02:16:14.534Z,3.70
2018-01-05T02:18:42.826Z,3.70
2018-01-05T02:21:11.112Z,3.70
2018-01-05T02:23:39.418Z,3.60
2018-01-05T02:26:07.716Z,3.70
2018-01-05T02:28:36.009Z,3.70
2018-01-05T02:31:04.316Z,3.70
2018-01-05T02:33:33.428Z,3.70
2018-01-05T02:36:02.497Z,3.80
2018-01-05T02:38:30.814Z,3.70
2018-01-05T02:40:59.879Z,3.70
2018-01-05T02:43:28.168Z,3.70
2018-01-05T02:45:56.454Z,3.70
2018-01-05T02:48:24.747Z,3.70
2018-01-05T02:50:53.075Z,3.70
2018-01-05T02:53:21.367Z,3.80
2018-01-05T02:55:50.415Z,3.80
2018-01-05T02:58:18.739Z,3.80
2018-01-05T03:00:47.028Z,3.90
2018-01-05T03:03:15.316Z,3.90
2018-01-05T03:05:43.606Z,4.00
2018-01-05T03:08:11.903Z,4.00
2018-01-05T03:10:40.232Z,4.00
2018-01-05T03:13:09.328Z,4.00
2018-01-05T03:15:38.387Z,4.10
2018-01-05T03:18:06.714Z,4.00
2018-01-05T03:20:34.996Z,4.00
2018-01-05T03:23:03.314Z,4.00
2018-01-05T03:25:32.414Z,4.00
2018-01-05T03:28:01.495Z,4.00
2018-01-05T03:30:29.826Z,4.00
2018-01-05T03:32:58.870Z,4.00
2018-01-05T03:35:27.163Z,4.00
2018-01-05T03:37:55.460Z,3.90
2018-01-05T03:40:23.846Z,3.90
2018-01-05T03:42:52.173Z,4.00
2018-01-05T03:45:21.298Z,4.00
2018-01-05T03:47:50.431Z,4.00
2018-01-05T03:50:18.798Z,4.00
2018-01-05T03:52:53.751Z,4.00
2018-01-05T03:55:22.879Z,4.00
2018-01-05T03:57:51.308Z,4.00
2018-01-05T04:00:31.782Z,4.00
2018-01-05T04:03:00.092Z,3.90
2018-01-05T04:05:28.392Z,4.00
2018-01-05T04:07:57.455Z,4.00
2018-01-05T04:10:25.774Z,4.00
2018-01-05T04:12:54.068Z,4.00
2018-01-05T04:15:22.351Z,4.00
2018-01-05T04:17:50.667Z,4.10
2018-01-05T04:20:19.720Z,4.00
2018-01-05T04:22:48.039Z,4.00
2018-01-05T04:25:16.327Z,4.00
2018-01-05T04:27:44.647Z,4.00
2018-01-05T04:30:13.698Z,4.00
2018-01-05T04:32:41.998Z,3.90
2018-01-05T04:35:10.292Z,3.90
2018-01-05T04:37:38.569Z,3.90
2018-01-05T04:40:06.991Z,3.90
2018-01-05T04:42:35.311Z,3.90
2018-01-05T04:45:03.618Z,3.90
2018-01-05T04:47:31.958Z,3.90
2018-01-05T04:50:00.279Z,3.90
2018-01-05T04:52:29.377Z,3.80
2018-01-05T04:54:57.669Z,3.70
2018-01-05T04:57:25.954Z,3.60
2018-01-05T04:59:54.245Z,3.50
2018-01-05T05:02:22.545Z,3.40
2018-01-05T05:04:51.655Z,3.20
2018-01-05T05:07:20.694Z,3.10
2018-01-05T05:09:48.980Z,3.10
2018-01-05T05:12:17.269Z,3.10
2018-01-05T05:14:45.571Z,3.00
2018-01-05T05:17:13.892Z,3.00
2018-01-05T05:19:42.174Z,3.00
2018-01-05T05:22:10.455Z,3.00
2018-01-05T05:24:38.759Z,2.90
2018-01-05T05:27:07.082Z,2.90
2018-01-05T05:29:36.200Z,2.90
2018-01-05T05:32:05.263Z,2.90
2018-01-05T05:34:33.572Z,2.80
2018-01-05T05:37:01.882Z,3.00
2018-01-05T05:39:30.958Z,3.10
2018-01-05T05:41:59.330Z,3.00
2018-01-05T05:44:27.689Z,3.10
2018-01-05T05:46:56.056Z,3.20
2018-01-05T05:49:25.168Z,3.30
2018-01-05T05:51:54.283Z,3.30
2018-01-05T05:54:23.400Z,3.40
2018-01-05T05:56:51.778Z,3.40
2018-01-05T05:59:20.868Z,3.50
2018-01-05T06:01:49.244Z,3.50
2018-01-05T06:04:17.613Z,3.60
2018-01-05T06:06:45.988Z,3.70
2018-01-05T06:09:14.353Z,3.70
2018-01-05T06:11:43.470Z,3.90
2018-01-05T06:14:12.603Z,4.00
2018-01-05T06:16:40.955Z,4.00
2018-01-05T06:19:09.323Z,4.00
2018-01-05T06:21:37.688Z,4.10
2018-01-05T06:24:05.996Z,4.10
2018-01-05T06:26:34.303Z,4.20
2018-01-05T06:29:02.606Z,4.30
2018-01-05T06:31:30.964Z,4.30
2018-01-05T06:33:59.268Z,4.30
2018-01-05T06:36:27.568Z,4.30
2018-01-05T06:38:55.855Z,4.40
2018-01-05T06:41:24.143Z,4.40
2018-01-05T06:43:52.475Z,4.50
2018-01-05T06:46:20.767Z,4.60
2018-01-05T06:48:49.814Z,4.60
2018-01-05T06:51:18.110Z,4.60
2018-01-05T06:53:46.416Z,4.60
2018-01-05T06:56:14.729Z,4.70
2018-01-05T06:58:43.778Z,4.80
2018-01-05T07:01:12.073Z,4.80
2018-01-05T07:03:40.362Z,4.90
2018-01-05T07:06:08.704Z,4.90
2018-01-05T07:08:37.025Z,4.90
2018-01-05T07:11:05.333Z,5.00
2018-01-05T07:13:33.641Z,5.00
2018-01-05T07:16:01.950Z,5.00
2018-01-05T07:18:31.087Z,5.00
2018-01-05T07:21:00.156Z,5.00
2018-01-05T07:23:28.458Z,5.00
2018-01-05T07:25:57.519Z,5.00
2018-01-05T07:28:25.821Z,5.00
2018-01-05T07:30:54.151Z,5.10
2018-01-05T07:33:22.445Z,5.10
2018-01-05T07:35:50.763Z,5.10
2018-01-05T07:38:19.042Z,5.10
2018-01-05T07:40:48.103Z,5.10
2018-01-05T07:43:16.419Z,5.10
2018-01-05T07:45:44.706Z,5.10
2018-01-05T07:48:12.999Z,5.10
2018-01-05T07:50:41.290Z,5.20
2018-01-05T07:53:09.665Z,5.10
2018-01-05T07:55:38.043Z,5.10
2018-01-05T07:58:06.429Z,5.10
2018-01-05T08:00:34.885Z,5.10
2018-01-05T08:03:03.282Z,5.10
2018-01-05T08:05:31.685Z,5.10
2018-01-05T08:08:00.092Z,5.10
2018-01-05T08:10:28.454Z,5.10
2018-01-05T08:12:56.805Z,5.10
2018-01-05T08:15:25.243Z,5.10
2018-01-05T08:17:53.550Z,5.10
2018-01-05T08:20:21.922Z,5.10
2018-01-05T08:22:50.310Z,5.10
2018-01-05T08:25:18.695Z,5.10
2018-01-05T08:27:47.079Z,5.10
2018-01-05T08:30:16.229Z,5.10
2018-01-05T08:32:44.586Z,5.10
2018-01-05T08:35:13.757Z,5.10
2018-01-05T08:37:42.123Z,5.10
2018-01-05T08:40:10.467Z,5.10
2018-01-05T08:42:38.840Z,5.10
2018-01-05T08:45:07.268Z,5.10
2018-01-05T08:47:35.653Z,5.20
2018-01-05T08:50:04.075Z,5.20
2018-01-05T08:52:32.504Z,5.20
2018-01-05T08:55:00.889Z,5.20
2018-01-05T08:57:29.288Z,5.20
2018-01-05T08:59:57.669Z,5.30
2018-01-05T09:02:26.051Z,5.30
2018-01-05T09:04:54.371Z,5.30
2018-01-05T09:07:22.671Z,5.30
2018-01-05T09:09:50.962Z,5.30
2018-01-05T09:12:19.250Z,5.30
2018-01-05T09:14:47.591Z,5.30
2018-01-05T09:17:16.644Z,5.20
2018-01-05T09:19:45.024Z,5.20
2018-01-05T09:22:13.311Z,5.20
2018-01-05T09:24:41.607Z,5.20
2018-01-05T09:27:09.934Z,5.30
2018-01-05T09:29:38.995Z,5.30
2018-01-05T09:32:07.300Z,5.30
2018-01-05T09:34:35.676Z,5.30
2018-01-05T09:37:03.986Z,5.30
2018-01-05T09:39:32.353Z,5.40
2018-01-05T09:42:00.663Z,5.40
2018-01-05T09:44:28.963Z,5.40
2018-01-05T09:46:57.265Z,5.40
2018-01-05T09:49:25.554Z,5.40
2018-01-05T09:51:54.676Z,5.50
2018-01-05T09:54:23.745Z,5.50
2018-01-05T09:56:52.032Z,5.50
2018-01-05T09:59:20.319Z,5.50
2018-01-05T10:01:48.612Z,5.50
2018-01-05T10:04:16.936Z,5.50
2018-01-05T10:06:45.990Z,5.50
2018-01-05T10:09:14.275Z,5.50
2018-01-05T10:11:43.392Z,5.60
2018-01-05T10:14:11.717Z,5.50
2018-01-05T10:16:40.040Z,5.50
2018-01-05T10:19:08.346Z,5.60
2018-01-05T10:21:36.761Z,5.60
2018-01-05T10:24:05.060Z,5.60
2018-01-05T10:26:33.360Z,5.60
2018-01-05T10:29:02.568Z,5.70
2018-01-05T10:31:30.872Z,5.60
2018-01-05T10:33:59.211Z,5.70
2018-01-05T10:36:27.500Z,5.70
2018-01-05T10:38:55.805Z,5.70
2018-01-05T10:41:24.895Z,5.60
2018-01-05T10:43:53.185Z,5.60
2018-01-05T10:46:21.466Z,5.60
2018-01-05T10:48:49.760Z,5.60
2018-01-05T10:51:18.100Z,5.60
2018-01-05T10:53:46.410Z,5.60
2018-01-05T10:56:14.713Z,5.60
2018-01-05T10:58:43.796Z,5.60
2018-01-05T11:01:12.092Z,5.60
2018-01-05T11:03:40.385Z,5.70
2018-01-05T11:06:08.731Z,5.70
2018-01-05T11:08:37.040Z,5.70
2018-01-05T11:11:06.353Z,5.70
2018-01-05T11:13:34.645Z,5.80
2018-01-05T11:16:02.931Z,5.80
2018-01-05T11:18:31.281Z,5.80
2018-01-05T11:20:59.598Z,5.80
2018-01-05T11:23:27.900Z,5.90
2018-01-05T11:25:56.190Z,5.90
2018-01-05T11:28:24.483Z,5.90
2018-01-05T11:30:52.810Z,5.90
2018-01-05T11:33:21.867Z,5.90
2018-01-05T11:35:50.929Z,6.00
2018-01-05T11:38:19.979Z,6.00
2018-01-05T11:40:48.277Z,5.90
2018-01-05T11:43:16.601Z,6.00
2018-01-05T11:45:44.893Z,6.00
2018-01-05T11:48:13.186Z,5.90
2018-01-05T11:50:42.391Z,5.80
2018-01-05T11:53:10.682Z,5.80
2018-01-05T11:55:38.964Z,5.80
2018-01-05T11:58:07.312Z,5.80
2018-01-05T12:00:35.625Z,5.80
2018-01-05T12:03:03.929Z,5.80
2018-01-05T12:05:32.237Z,5.80
2018-01-05T12:08:00.595Z,5.90
2018-01-05T12:10:29.176Z,5.80
2018-01-05T12:12:58.183Z,5.80
2018-01-05T12:15:26.484Z,5.80
2018-01-05T12:17:54.787Z,5.80
2018-01-05T12:20:23.067Z,5.80
2018-01-05T12:22:51.394Z,5.80
2018-01-05T12:25:19.675Z,5.80
2018-01-05T12:27:47.967Z,5.80
2018-01-05T12:30:16.292Z,5.80
2018-01-05T12:32:44.615Z,5.80
2018-01-05T12:35:12.938Z,5.80
2018-01-05T12:37:41.264Z,5.80
2018-01-05T12:40:09.602Z,5.80
2018-01-05T12:42:37.896Z,5.90
2018-01-05T12:45:06.236Z,5.90
2018-01-05T12:47:34.547Z,5.90
2018-01-05T12:50:02.860Z,6.00
2018-01-05T12:52:31.202Z,5.90
2018-01-05T12:54:59.508Z,5.90
2018-01-05T12:57:27.817Z,5.90
2018-01-05T12:59:56.105Z,6.00
2018-01-05T13:02:24.403Z,6.10
2018-01-05T13:04:52.700Z,6.10
2018-01-05T13:07:21.015Z,6.00
2018-01-05T13:09:50.126Z,5.90
2018-01-05T13:12:18.424Z,5.90
2018-01-05T13:14:46.735Z,5.90
2018-01-05T13:17:15.019Z,5.90
2018-01-05T13:19:43.311Z,5.80
2018-01-05T13:22:11.641Z,5.80
2018-01-05T13:24:39.927Z,5.80
2018-01-05T13:27:08.214Z,5.80
2018-01-05T13:29:36.545Z,5.80
2018-01-05T13:32:04.851Z,5.90
2018-01-05T13:34:33.991Z,5.80
2018-01-05T13:37:02.283Z,5.70
2018-01-05T13:39:30.658Z,5.80
2018-01-05T13:41:58.985Z,5.70
2018-01-05T13:44:27.279Z,5.70
2018-01-05T13:46:55.588Z,5.70
2018-01-05T13:49:23.895Z,5.60
2018-01-05T13:51:52.943Z,5.50
2018-01-05T13:54:21.231Z,5.50
2018-01-05T13:56:49.713Z,5.60
2018-01-05T13:59:18.914Z,5.50
2018-01-05T14:01:47.966Z,5.40
2018-01-05T14:04:16.264Z,5.40
2018-01-05T14:06:44.626Z,5.40
2018-01-05T14:09:13.669Z,5.30
2018-01-05T14:11:42.008Z,5.30
2018-01-05T14:14:10.307Z,5.20
2018-01-05T14:16:38.598Z,5.20
2018-01-05T14:19:06.908Z,5.20
2018-01-05T14:21:35.264Z,5.20
2018-01-05T14:24:04.517Z,5.20
2018-01-05T14:26:32.855Z,5.10
2018-01-05T14:29:01.228Z,5.10
2018-01-05T14:31:30.334Z,5.10
2018-01-05T14:33:58.688Z,5.00
2018-01-05T14:36:26.975Z,5.00
2018-01-05T14:38:55.256Z,4.90
2018-01-05T14:41:23.588Z,4.80
2018-01-05T14:43:51.875Z,4.80
2018-01-05T14:46:20.166Z,4.70
2018-01-05T14:48:48.474Z,4.70
2018-01-05T14:51:17.568Z,4.60
2018-01-05T14:53:45.900Z,4.60
2018-01-05T14:56:14.208Z,4.60
2018-01-05T14:58:42.501Z,4.60
2018-01-05T15:01:10.791Z,4.50
2018-01-05T15:03:39.099Z,4.50
2018-01-05T15:06:07.441Z,4.50
2018-01-05T15:08:36.511Z,4.40
2018-01-05T15:11:05.026Z,4.40
2018-01-05T15:13:33.398Z,4.30
2018-01-05T15:16:01.732Z,4.20
2018-01-05T15:18:30.086Z,4.20
2018-01-05T15:20:58.378Z,4.10
2018-01-05T15:23:26.806Z,4.00
2018-01-05T15:25:55.099Z,4.00
2018-01-05T15:28:23.378Z,3.90
2018-01-05T15:30:51.687Z,3.90
2018-01-05T15:33:19.964Z,3.80
2018-01-05T15:35:48.296Z,3.70
2018-01-05T15:38:16.580Z,3.60
2018-01-05T15:40:44.881Z,3.70
2018-01-05T15:43:13.202Z,3.70
2018-01-05T15:45:41.505Z,3.70
2018-01-05T15:48:10.614Z,3.70
2018-01-05T15:50:39.673Z,3.60
2018-01-05T15:53:07.975Z,3.60
2018-01-05T15:55:36.279Z,3.60
2018-01-05T15:58:04.580Z,3.60
2018-01-05T16:00:32.955Z,3.50
2018-01-05T16:03:01.275Z,3.60
2018-01-05T16:05:30.339Z,3.40
2018-01-05T16:07:58.644Z,3.30
2018-01-05T16:10:26.936Z,3.30
2018-01-05T16:12:55.270Z,3.20
2018-01-05T16:15:23.566Z,3.10
2018-01-05T16:17:51.852Z,3.10
2018-01-05T16:20:20.166Z,3.10
2018-01-05T16:22:48.464Z,3.10
2018-01-05T16:25:16.746Z,3.00
2018-01-05T16:27:45.038Z,3.00
2018-01-05T16:30:13.332Z,3.00
2018-01-05T16:32:41.651Z,2.90
2018-01-05T16:35:09.943Z,2.90
2018-01-05T16:37:38.227Z,2.90
2018-01-05T16:40:06.535Z,2.80
2018-01-05T16:42:35.715Z,3.20
2018-01-05T16:45:04.030Z,3.20
2018-01-05T16:47:32.383Z,3.30
2018-01-05T16:50:00.780Z,3.40
2018-01-05T16:52:29.090Z,3.50
2018-01-05T16:54:57.444Z,3.60
2018-01-05T16:57:25.731Z,3.70
2018-01-05T16:59:54.031Z,3.80
2018-01-05T17:02:22.335Z,3.80
2018-01-05T17:04:50.641Z,3.80
2018-01-05T17:07:18.960Z,3.80
2018-01-05T17:09:48.018Z,3.80
2018-01-05T17:12:16.311Z,3.70
2018-01-05T17:14:44.603Z,3.80
2018-01-05T17:17:12.928Z,3.80
2018-01-05T17:19:42.034Z,3.70
2018-01-05T17:22:10.322Z,3.60
2018-01-05T17:24:38.618Z,3.60
2018-01-05T17:27:07.755Z,3.40
2018-01-05T17:29:36.077Z,3.40
2018-01-05T17:32:04.452Z,3.40
2018-01-05T17:34:32.763Z,3.50
2018-01-05T17:37:01.844Z,3.70
2018-01-05T17:39:30.148Z,3.60
2018-01-05T17:41:58.440Z,3.70
2018-01-05T17:44:26.767Z,3.70
2018-01-05T17:46:55.055Z,3.80
2018-01-05T17:49:23.351Z,3.80
2018-01-05T17:51:51.642Z,3.80
2018-01-05T17:54:19.931Z,3.80
2018-01-05T17:56:49.052Z,3.70
2018-01-05T17:59:18.091Z,3.60
2018-01-05T18:01:46.382Z,3.60
2018-01-05T18:04:14.678Z,3.60
2018-01-05T18:06:42.962Z,3.60
2018-01-05T18:09:11.397Z,3.60
2018-01-05T18:11:39.688Z,3.70
2018-01-05T18:14:07.994Z,3.80
2018-01-05T18:16:37.064Z,3.80
2018-01-05T18:19:05.374Z,3.80
2018-01-05T18:21:34.496Z,4.00
2018-01-05T18:24:02.878Z,3.90
2018-01-05T18:26:31.148Z,4.00
2018-01-05T18:29:00.272Z,4.20
2018-01-05T18:31:29.363Z,4.30
2018-01-05T18:33:57.716Z,4.20
2018-01-05T18:36:26.004Z,4.40
2018-01-05T18:38:54.299Z,4.40
2018-01-05T18:41:22.618Z,4.40
2018-01-05T18:43:50.911Z,4.40
2018-01-05T18:46:19.239Z,4.40
2018-01-05T18:48:48.309Z,4.50
2018-01-05T18:51:16.623Z,4.40
2018-01-05T18:53:44.951Z,4.50
2018-01-05T18:56:13.253Z,4.40
2018-01-05T18:58:41.669Z,4.50
2018-01-05T19:01:09.952Z,4.50
2018-01-05T19:03:38.238Z,4.50
2018-01-05T19:06:06.542Z,4.60
2018-01-05T19:08:34.870Z,4.50
2018-01-05T19:11:03.201Z,4.50
2018-01-05T19:13:31.517Z,4.60
2018-01-05T19:15:59.816Z,4.60
2018-01-05T19:18:28.120Z,4.60
2018-01-05T19:20:56.419Z,4.60
2018-01-05T19:23:24.826Z,4.60
2018-01-05T19:25:53.887Z,4.60
2018-01-05T19:28:22.206Z,4.50
2018-01-05T19:30:50.495Z,4.50
2018-01-05T19:33:18.791Z,4.60
2018-01-05T19:35:47.094Z,4.60
2018-01-05T19:38:16.208Z,4.60
2018-01-05T19:40:44.514Z,4.60
2018-01-05T19:43:12.796Z,4.50
2018-01-05T19:45:41.169Z,4.60
2018-01-05T19:48:10.224Z,4.60
2018-01-05T19:50:38.516Z,4.60
2018-01-05T19:53:06.885Z,4.50
2018-01-05T19:55:35.195Z,4.60
2018-01-05T19:58:03.539Z,4.60
2018-01-05T20:00:32.674Z,4.50
2018-01-05T20:03:00.989Z,4.50
2018-01-05T20:05:29.323Z,4.50
2018-01-05T20:07:58.383Z,4.40
2018-01-05T20:10:26.699Z,4.40
2018-01-05T20:12:54.986Z,4.50
2018-01-05T20:15:23.277Z,4.50
2018-01-05T20:17:51.567Z,4.60
2018-01-05T20:20:19.855Z,4.60
2018-01-05T20:22:48.183Z,4.60
2018-01-05T20:25:17.240Z,4.70
2018-01-05T20:27:45.523Z,4.70
2018-01-05T20:30:13.812Z,4.80
2018-01-05T20:32:42.099Z,4.80
2018-01-05T20:35:10.417Z,4.90
2018-01-05T20:37:38.699Z,4.90
2018-01-05T20:40:06.990Z,4.80
2018-01-05T20:42:35.296Z,4.80
2018-01-05T20:45:03.606Z,4.70
2018-01-05T20:47:32.002Z,4.60
2018-01-05T20:50:01.143Z,4.60
2018-01-05T20:52:29.474Z,4.60
2018-01-05T20:54:57.763Z,4.50
2018-01-05T20:57:26.047Z,4.50
2018-01-05T20:59:54.359Z,4.40
2018-01-05T21:02:22.643Z,4.30
2018-01-05T21:04:50.935Z,4.30
2018-01-05T21:07:19.258Z,4.30
2018-01-05T21:09:47.571Z,4.30
2018-01-05T21:12:15.870Z,4.40
2018-01-05T21:14:44.161Z,4.30
2018-01-05T21:17:12.452Z,4.40
2018-01-05T21:19:40.870Z,4.40
2018-01-05T21:22:09.144Z,4.40
2018-01-05T21:24:37.703Z,4.50
2018-01-05T21:27:06.054Z,4.40
2018-01-05T21:29:34.354Z,4.40
2018-01-05T21:32:03.434Z,4.20
2018-01-05T21:34:31.776Z,4.20
2018-01-05T21:37:00.086Z,4.10
2018-01-05T21:39:28.381Z,4.00
2018-01-05T21:41:56.703Z,3.90
2018-01-05T21:44:24.988Z,3.80
2018-01-05T21:46:53.275Z,3.70
2018-01-05T21:49:21.561Z,3.70
2018-01-05T21:51:49.862Z,3.70
2018-01-05T21:54:18.147Z,3.60
2018-01-05T21:56:46.435Z,3.50
2018-01-05T21:59:14.767Z,3.50
2018-01-05T22:01:43.049Z,3.50
2018-01-05T22:04:12.102Z,3.30
2018-01-05T22:06:40.635Z,3.30
2018-01-05T22:09:08.900Z,3.20
2018-01-05T22:11:37.235Z,3.10
2018-01-05T22:14:05.530Z,3.10
2018-01-05T22:16:34.595Z,3.30
2018-01-05T22:19:02.909Z,3.30
2018-01-05T22:21:31.978Z,3.30
2018-01-05T22:24:00.299Z,3.30
2018-01-05T22:26:28.580Z,3.20
2018-01-05T22:28:56.867Z,3.10
2018-01-05T22:31:25.255Z,3.10
2018-01-05T22:33:53.538Z,3.10
2018-01-05T22:36:21.849Z,3.10
2018-01-05T22:38:50.133Z,3.00
2018-01-05T22:41:18.412Z,3.10
2018-01-05T22:43:46.696Z,3.00
2018-01-05T22:46:14.983Z,3.10
2018-01-05T22:48:43.260Z,3.00
2018-01-05T22:51:11.560Z,2.90
2018-01-05T22:53:39.869Z,2.90
2018-01-05T22:56:08.187Z,2.90
2018-01-05T22:58:37.240Z,2.90
2018-01-05T23:01:05.785Z,2.90
2018-01-05T23:03:34.086Z,2.90
2018-01-05T23:06:03.182Z,2.70
2018-01-05T23:08:32.259Z,2.70
2018-01-05T23:11:00.546Z,2.70
2018-01-05T23:13:28.843Z,2.70
2018-01-05T23:15:57.141Z,2.70
2018-01-05T23:18:25.463Z,2.70
2018-01-05T23:20:54.502Z,2.60
2018-01-05T23:23:22.783Z,2.50
2018-01-05T23:25:51.071Z,2.60
2018-01-05T23:28:19.347Z,2.50
2018-01-05T23:30:47.672Z,2.60
2018-01-05T23:33:15.956Z,2.60
2018-01-05T23:35:44.236Z,2.50
2018-01-05T23:38:12.519Z,2.40
2018-01-05T23:40:40.803Z,2.30
2018-01-05T23:43:09.130Z,2.30
2018-01-05T23:45:37.406Z,2.20
2018-01-05T23:48:05.695Z,2.20
2018-01-05T23:50:33.992Z,2.20
2018-01-05T23:53:02.276Z,2.10
2018-01-05T23:55:30.579Z,2.10
2018-01-05T23:57:58.868Z,2.10
